• Join FlightAware (Why Join?)
  • Login
  • US Flag 
05:09AM EDT


 

Airport Tracker/Info


-or-


 

Live Flight TrackerFlight Track Log ✈ SWA267 ✈ 19-Apr-2013 ✈ KBWI - KMHT

Flight Track Log - Related Links

Times and Time Zones

All times are in EDT time to prevent confusion due to time zone crossing. See the SWA267 flight status page for this flight to view local times or setup timezone preferences in your user account.

Time Position Orientation Groundspeed Altitude Reporting Facility
EDT Latitude Longitude Course Direction KTS MPH feet Rate Location/Type
02:15PM 39.1133 -76.6108 90° East 203 234 3,000  Level Washington Center
02:16PM 39.0742 -76.5542 132° Southeast 216 249 5,300 2,220 Climbing Washington Center
02:17PM 39.0958 -76.4528 75° East 226 260 7,500 2,220 Climbing Washington Center
02:18PM 39.1236 -76.3381 73° East 273 314 9,800 2,100 Climbing Washington Center
02:19PM 39.1494 -76.2125 75° East 321 369 11,800 2,520 Climbing Washington Center
02:20PM 39.1667 -76.5893 90° East  Level FlightAware Approximate
02:20PM 39.1731 -76.0600 79° East 363 418 15,000  Level Washington Center
02:21PM 39.1881 -75.9183 82° East 376 433 17,000 2,160 Climbing Washington Center
02:22PM 39.2550 -75.8033 53° Northeast 389 448 19,300 2,100 Climbing Washington Center
02:23PM 39.3383 -75.6936 46° Northeast 404 465 21,200 1,740 Climbing Washington Center
02:24PM 39.4261 -75.5836 44° Northeast 423 487 22,800 1,620 Climbing Washington Center
02:26PM 39.6058 -75.3461 45° Northeast 465 535 26,200 1,500 Climbing New York Center
02:27PM 39.6958 -75.2253 46° Northeast 465 535 27,600 1,200 Climbing New York Center
02:28PM 39.7733 -75.1086 49° Northeast 465 535 28,600 1,140 Climbing New York Center
02:29PM 39.8633 -74.9817 47° Northeast 473 544 29,900 1,260 Climbing New York Center
02:30PM 39.9553 -74.8519 47° Northeast 479 551 31,200 1,200 Climbing New York Center
02:31PM 40.0561 -74.7139 46° Northeast 479 551 32,400 1,200 Climbing New York Center
02:32PM 40.1681 -74.6661 18° North 464 534 33,600 1,140 Climbing New York Center
02:33PM 40.2967 -74.6217 15° North 469 540 34,700 840 Climbing New York Center
02:34PM 40.4211 -74.5794 14° North 469 540 35,400 720 Climbing New York Center
02:35PM 40.5494 -74.5403 13° North 464 534 36,200 780 Climbing New York Center
02:36PM 40.6736 -74.4978 15° North 459 528 37,000 180 Climbing New York Center
02:39PM 41.0436 -74.3858 13° North 442 509 36,900  Descending Boston Center
02:40PM 41.1736 -74.3400 15° North 466 536 37,000  Climbing Boston Center
02:41PM 41.2953 -74.2939 16° North 466 536 37,000  Level Boston Center
02:42PM 41.4208 -74.2533 14° North 471 542 37,000 -300 Level Boston Center
02:43PM 41.5508 -74.2125 13° North 471 542 36,500 -780 Descending Boston Center
02:44PM 41.6806 -74.1689 14° North 471 542 35,500 -960 Descending Boston Center
02:45PM 41.7833 -74.1328 15° North 471 542 34,700 -900 Descending Boston Center
02:46PM 41.8911 -74.0269 36° Northeast 447 514 33,700 -1,020 Descending Boston Center
02:47PM 41.9681 -73.8781 55° Northeast 447 514 32,700 -1,620 Descending Boston Center
02:48PM 42.0597 -73.7208 52° Northeast 474 545 30,600 -2,520 Descending Boston Center
02:49PM 42.1386 -73.5600 56° Northeast 498 573 27,600 -2,580 Descending Boston Center
02:50PM 42.2108 -73.4156 56° Northeast 483 556 25,500 -1,800 Descending Boston Center
02:51PM 42.2722 -73.3014 54° Northeast 457 526 24,100 -1,140 Descending Boston Center
02:52PM 42.3522 -73.1508 54° Northeast 443 510 23,000 -1,020 Descending Boston Center
02:53PM 42.4367 -72.9803 56° Northeast 448 516 21,900 -1,080 Descending Boston Center
02:54PM 42.5061 -72.8456 55° Northeast 441 507 20,900 -1,260 Descending Boston Center
02:55PM 42.5753 -72.7136 55° Northeast 436 502 19,400 -1,740 Descending Boston Center
02:56PM 42.6400 -72.5953 53° Northeast 416 479 17,500 -1,920 Descending Boston Center
02:57PM 42.7047 -72.4711 55° Northeast 405 466 15,700 -1,860 Descending Boston Center
02:58PM 42.7650 -72.3525 55° Northeast 399 459 13,900 -1,740 Descending Boston Center
02:59PM 42.8025 -72.2222 69° East 381 438 12,200 -1,740 Descending Boston Center
03:00PM 42.8103 -72.0864 85° East 359 413 10,400 -1,260 Descending Boston Center
03:01PM 42.8581 -71.9756 60° Northeast 345 397 9,700 -1,380 Descending Boston Center
03:02PM 42.9200 -71.8786 49° Northeast 336 387 7,700 -1,680 Descending Boston Center
03:03PM 42.9778 -71.7817 51° Northeast 336 387 6,500 -1,500 Descending Boston Center
03:04PM 43.0314 -71.6875 52° Northeast 320 368 4,800 -1,200 Descending Boston Center
03:05PM 43.0706 -71.5931 60° Northeast 298 343 4,100 -600 Descending Boston Center
03:06PM 43.0656 -71.5164 95° East 244 281 3,600 -960 Descending Boston Center
03:07PM 43.0258 -71.4886 153° Southeast 159 183 2,200 -1,200 Descending Boston Center
03:08PM 42.9881 -71.4667 157° South 152 175 1,300 -840 Descending Boston Center
03:09PM 42.9525 -71.4472 158° South 152 175 600 -480 Descending Boston Center
03:10PM 42.9147 -71.4253 157° South 152 175 400 9,000 Descending Boston Center
03:11PM 42.8792 -71.4058 158° South 152 175 19,000 9,120 Climbing Boston Center
03:12PM 42.8414 -71.3839 157° South 152 175 19,000  Level Boston Center
03:14PM 42.9167 -71.4333 316° Northwest  Level FlightAware Approximate
03:21PM 42.9328 -71.4358 316° Northwest  Level Estimated
03:22PM 42.9328 -71.4358 316° Northwest  Level Estimated
03:23PM 42.9328 -71.4358 316° Northwest  Level Estimated
03:24PM 42.9328 -71.4358 316° Northwest  Level Estimated
03:25PM 42.9328 -71.4358 316° Northwest  Level Estimated
03:26PM 42.9328 -71.4358 316° Northwest  Level Estimated